createdAt,value
2017-01-20T04:00:55.668Z,40.66
2017-01-20T04:01:21.324Z,40.95
2017-01-20T04:01:47.468Z,40.86
2017-01-20T04:02:13.179Z,40.76
2017-01-20T04:02:39.197Z,40.86
2017-01-20T04:03:04.776Z,40.86
2017-01-20T04:03:30.518Z,40.66
2017-01-20T04:03:56.150Z,40.86
2017-01-20T04:04:21.748Z,40.95
2017-01-20T04:04:47.307Z,40.95
2017-01-20T04:05:13.081Z,41.05
2017-01-20T04:05:38.706Z,41.05
2017-01-20T04:06:04.287Z,41.05
2017-01-20T04:06:30.014Z,40.76
2017-01-20T04:06:55.595Z,41.14
2017-01-20T04:07:21.273Z,40.66
2017-01-20T04:07:46.906Z,41.05
2017-01-20T04:08:12.402Z,40.76
2017-01-20T04:08:38.215Z,40.66
2017-01-20T04:09:03.999Z,40.86
2017-01-20T04:09:29.588Z,40.66
2017-01-20T04:09:55.157Z,41.05
2017-01-20T04:10:20.804Z,41.05
2017-01-20T04:10:46.433Z,40.76
2017-01-20T04:11:12.047Z,40.95
2017-01-20T04:11:37.611Z,40.66
2017-01-20T04:12:03.279Z,40.76
2017-01-20T04:12:28.908Z,40.95
2017-01-20T04:12:54.464Z,40.86
2017-01-20T04:13:20.035Z,41.14
2017-01-20T04:13:45.675Z,41.14
2017-01-20T04:14:11.277Z,41.05
2017-01-20T04:14:36.973Z,40.86
2017-01-20T04:15:02.533Z,41.14
2017-01-20T04:15:28.112Z,40.95
2017-01-20T04:15:53.680Z,41.05
2017-01-20T04:16:19.333Z,40.95
2017-01-20T04:16:45.008Z,41.14
2017-01-20T04:17:10.645Z,40.95
2017-01-20T04:17:36.205Z,40.76
2017-01-20T04:18:01.793Z,40.66
2017-01-20T04:18:27.443Z,41.14
2017-01-20T04:18:53.042Z,40.95
2017-01-20T04:19:18.599Z,41.05
2017-01-20T04:19:44.251Z,40.95
2017-01-20T04:20:09.912Z,41.05
2017-01-20T04:20:35.477Z,41.14
2017-01-20T04:21:01.174Z,40.66
2017-01-20T04:21:26.756Z,41.24
2017-01-20T04:21:52.499Z,41.05
2017-01-20T04:22:18.152Z,40.95
2017-01-20T04:22:43.709Z,41.05
2017-01-20T04:23:09.289Z,40.66
2017-01-20T04:23:35.213Z,40.66
2017-01-20T04:24:00.777Z,41.24
2017-01-20T04:24:27.174Z,41.24
2017-01-20T04:24:52.732Z,40.95
2017-01-20T04:25:18.402Z,40.95
2017-01-20T04:25:43.987Z,40.86
2017-01-20T04:26:09.555Z,40.76
2017-01-20T04:26:35.261Z,40.86
2017-01-20T04:27:00.825Z,40.95
2017-01-20T04:27:26.395Z,40.76
2017-01-20T04:27:52.030Z,40.86
2017-01-20T04:28:17.607Z,40.86
2017-01-20T04:29:31.282Z,40.86
2017-01-20T04:29:56.822Z,40.95
2017-01-20T04:30:22.556Z,40.95
2017-01-20T04:30:48.237Z,40.95
2017-01-20T04:31:13.793Z,40.86
2017-01-20T04:31:39.492Z,40.95
2017-01-20T04:32:05.128Z,40.86
2017-01-20T04:32:30.694Z,40.86
2017-01-20T04:33:44.528Z,40.97
2017-01-20T04:34:10.167Z,40.66
2017-01-20T04:34:35.765Z,40.66
2017-01-20T04:35:01.477Z,40.76
2017-01-20T04:35:27.206Z,40.66
2017-01-20T04:35:52.766Z,40.66
2017-01-20T04:36:18.393Z,40.95
2017-01-20T04:36:44.029Z,40.88
2017-01-20T04:37:09.662Z,40.88
2017-01-20T04:37:35.345Z,40.66
2017-01-20T04:38:00.976Z,40.86
2017-01-20T04:38:26.565Z,40.86
2017-01-20T04:38:52.240Z,40.78
2017-01-20T04:39:17.825Z,40.66
2017-01-20T04:39:43.483Z,40.76
2017-01-20T04:40:09.124Z,40.66
2017-01-20T04:40:34.734Z,40.57
2017-01-20T04:41:00.458Z,40.69
2017-01-20T04:41:26.045Z,40.66
2017-01-20T04:41:51.678Z,40.66
2017-01-20T04:42:17.363Z,40.57
2017-01-20T04:42:42.909Z,40.66
2017-01-20T04:43:08.505Z,40.66
2017-01-20T04:43:34.103Z,40.57
2017-01-20T04:43:59.734Z,40.76
2017-01-20T04:44:25.369Z,40.76
2017-01-20T04:44:50.973Z,40.66
2017-01-20T04:45:16.644Z,40.57
2017-01-20T04:45:42.421Z,40.47
2017-01-20T04:46:07.996Z,40.57
2017-01-20T04:46:33.567Z,40.66
2017-01-20T04:46:59.282Z,40.57
2017-01-20T04:47:25.001Z,40.37
2017-01-20T04:47:50.672Z,40.66
2017-01-20T04:48:16.481Z,40.57
2017-01-20T04:48:42.076Z,40.57
2017-01-20T04:49:07.641Z,40.66
2017-01-20T04:49:33.220Z,41.05
2017-01-20T04:49:58.843Z,41.14
2017-01-20T04:50:24.436Z,41.14
2017-01-20T04:50:50.059Z,40.76
2017-01-20T04:51:15.681Z,40.86
2017-01-20T04:51:41.237Z,40.95
2017-01-20T04:52:06.876Z,41.14
2017-01-20T04:52:32.534Z,40.95
2017-01-20T04:52:58.429Z,40.95
2017-01-20T04:53:24.005Z,40.97
2017-01-20T04:53:49.707Z,40.86
2017-01-20T04:54:15.173Z,40.97
2017-01-20T04:54:40.789Z,41.36
2017-01-20T04:55:06.435Z,41.75
2017-01-20T04:55:31.971Z,42.03
2017-01-20T04:55:57.578Z,42.02
2017-01-20T04:56:23.147Z,42.02
2017-01-20T04:56:48.783Z,41.75
2017-01-20T04:57:14.338Z,41.75
2017-01-20T04:57:39.896Z,41.75
2017-01-20T04:58:05.549Z,41.46
2017-01-20T04:58:31.185Z,41.46
2017-01-20T04:58:56.825Z,41.46
2017-01-20T04:59:22.411Z,41.36
2017-01-20T04:59:48.006Z,41.07
2017-01-20T05:00:13.648Z,40.78
2017-01-20T05:00:39.221Z,40.69
2017-01-20T05:01:04.892Z,40.97
2017-01-20T05:01:30.564Z,40.78
2017-01-20T05:01:56.226Z,40.97
2017-01-20T05:02:21.913Z,40.69
2017-01-20T05:02:47.618Z,40.78
2017-01-20T05:03:55.914Z,41.07
2017-01-20T05:04:21.578Z,40.88
2017-01-20T05:04:47.177Z,40.97
2017-01-20T05:05:12.847Z,40.97
2017-01-20T05:05:38.419Z,40.97
2017-01-20T05:06:04.025Z,40.86
2017-01-20T05:06:29.606Z,40.88
2017-01-20T05:06:55.163Z,41.07
2017-01-20T05:07:20.742Z,41.07
2017-01-20T05:07:46.395Z,41.17
2017-01-20T05:08:12.013Z,41.27
2017-01-20T05:08:37.630Z,41.27
2017-01-20T05:09:03.209Z,40.97
2017-01-20T05:09:28.813Z,40.97
2017-01-20T05:09:54.357Z,41.17
2017-01-20T05:10:19.973Z,41.07
2017-01-20T05:10:45.560Z,41.65
2017-01-20T05:11:11.155Z,41.46
2017-01-20T05:11:36.703Z,41.75
2017-01-20T05:12:02.401Z,41.65
2017-01-20T05:12:28.029Z,41.84
2017-01-20T05:12:53.584Z,41.55
2017-01-20T05:13:19.175Z,41.55
2017-01-20T05:13:44.755Z,41.55
2017-01-20T05:14:10.316Z,41.46
2017-01-20T05:15:24.138Z,41.65
2017-01-20T05:15:49.735Z,41.65
2017-01-20T05:16:15.296Z,41.46
2017-01-20T05:16:41.012Z,41.55
2017-01-20T05:17:06.576Z,41.46
2017-01-20T05:17:32.236Z,41.46
2017-01-20T05:17:57.922Z,40.97
2017-01-20T05:18:23.493Z,38.08
2017-01-20T05:18:49.122Z,36.35
2017-01-20T05:19:14.696Z,34.69
2017-01-20T05:19:40.257Z,33.84
2017-01-20T05:20:05.972Z,33.82
2017-01-20T05:20:31.586Z,33.92
2017-01-20T05:20:57.202Z,34.5
2017-01-20T05:21:22.791Z,34.69
2017-01-20T05:21:48.448Z,34.98
2017-01-20T05:22:14.377Z,34.98
2017-01-20T05:22:39.967Z,35.17
2017-01-20T05:23:33.171Z,36.71
2017-01-20T05:23:58.749Z,36.91
2017-01-20T05:24:24.537Z,37.58
2017-01-20T05:24:50.116Z,37.89
2017-01-20T05:25:15.672Z,38.35
2017-01-20T05:25:41.345Z,39.12
2017-01-20T05:26:07.198Z,39.31
2017-01-20T05:26:32.763Z,39.22
2017-01-20T05:26:58.372Z,39.51
2017-01-20T05:27:23.976Z,39.79
2017-01-20T05:27:49.545Z,39.79
2017-01-20T05:28:15.199Z,40.66
2017-01-20T05:28:40.753Z,40.86
2017-01-20T05:29:06.441Z,40.66
2017-01-20T05:29:32.026Z,40.69
2017-01-20T05:29:57.583Z,40.69
2017-01-20T05:30:23.293Z,40.88
2017-01-20T05:30:48.859Z,40.88
2017-01-20T05:31:14.563Z,40.69
2017-01-20T05:31:40.143Z,40.59
2017-01-20T05:32:05.701Z,40.97
2017-01-20T05:32:31.482Z,40.88
2017-01-20T05:32:57.124Z,41.17
2017-01-20T05:33:22.710Z,41.05
2017-01-20T05:33:48.391Z,40.88
2017-01-20T05:34:13.973Z,40.78
2017-01-20T05:34:39.599Z,40.88
2017-01-20T05:35:05.272Z,40.97
2017-01-20T05:35:30.853Z,40.88
2017-01-20T05:35:56.558Z,40.69
2017-01-20T05:36:22.196Z,40.69
2017-01-20T05:36:47.773Z,40.78
2017-01-20T05:37:13.413Z,40.88
2017-01-20T05:37:38.958Z,40.97
2017-01-20T05:38:04.547Z,40.88
2017-01-20T05:38:30.207Z,40.78
2017-01-20T05:38:55.765Z,40.69
2017-01-20T05:39:21.456Z,40.97
2017-01-20T05:39:47.056Z,40.88
2017-01-20T05:40:12.782Z,40.88
2017-01-20T05:40:38.445Z,40.78
2017-01-20T05:41:04.007Z,40.97
2017-01-20T05:41:30.660Z,40.88
2017-01-20T05:41:56.229Z,41.27
2017-01-20T05:42:21.791Z,40.97
2017-01-20T05:42:47.438Z,41.17
2017-01-20T05:43:13.008Z,41.17
2017-01-20T05:43:38.668Z,40.88
2017-01-20T05:44:04.263Z,40.88
2017-01-20T05:44:29.835Z,41.07
2017-01-20T05:44:55.485Z,41.17
2017-01-20T05:45:21.035Z,41.07
2017-01-20T05:45:46.721Z,40.69
2017-01-20T05:46:12.506Z,40.69
2017-01-20T05:46:38.084Z,40.69
2017-01-20T05:47:03.734Z,40.69
2017-01-20T05:47:29.318Z,40.69
2017-01-20T05:47:54.892Z,40.78
2017-01-20T05:48:20.480Z,40.88
2017-01-20T05:48:46.063Z,40.59
2017-01-20T05:49:11.736Z,39.82
2017-01-20T05:49:37.317Z,39.34
2017-01-20T05:50:02.911Z,39.34
2017-01-20T05:50:28.549Z,39.53
2017-01-20T05:50:54.126Z,40.3
2017-01-20T05:51:19.707Z,40.2
2017-01-20T05:51:45.351Z,40.59
2017-01-20T05:52:10.936Z,40.78
2017-01-20T05:52:36.618Z,40.97
2017-01-20T05:53:02.181Z,40.88
2017-01-20T05:53:27.858Z,40.88
2017-01-20T05:53:53.531Z,41.07
2017-01-20T05:54:19.085Z,40.69
2017-01-20T05:54:44.725Z,41.17
2017-01-20T05:55:10.301Z,40.97
2017-01-20T05:55:35.902Z,41.17
2017-01-20T05:56:01.490Z,41.07
2017-01-20T05:56:27.056Z,41.27
2017-01-20T05:56:52.666Z,41.36
2017-01-20T05:57:18.218Z,41.36
2017-01-20T05:57:43.930Z,41.36
2017-01-20T05:58:09.496Z,41.36
2017-01-20T05:58:35.090Z,41.36
2017-01-20T05:59:00.706Z,41.36
2017-01-20T05:59:26.331Z,41.65
2017-01-20T05:59:51.936Z,41.55
2017-01-20T06:00:17.509Z,41.36
2017-01-20T06:00:43.080Z,41.27
2017-01-20T06:01:08.810Z,41.36
2017-01-20T06:01:34.372Z,41.27
2017-01-20T06:01:59.925Z,41.46
2017-01-20T06:02:25.482Z,41.27
2017-01-20T06:02:51.047Z,41.55
2017-01-20T06:03:17.271Z,41.65
2017-01-20T06:03:42.915Z,41.65
2017-01-20T06:04:08.532Z,41.65
2017-01-20T06:04:34.077Z,41.65
2017-01-20T06:04:59.729Z,41.27
2017-01-20T06:05:25.299Z,40.69
2017-01-20T06:05:50.901Z,40.49
2017-01-20T06:06:16.572Z,40.49
2017-01-20T06:06:42.044Z,40.11
2017-01-20T06:07:07.599Z,40.11
2017-01-20T06:07:33.269Z,40.2
2017-01-20T06:07:59.143Z,40.49
2017-01-20T06:08:24.756Z,40.59
2017-01-20T06:08:50.324Z,40.59
2017-01-20T06:09:15.972Z,40.78
2017-01-20T06:09:41.660Z,40.88
2017-01-20T06:10:07.377Z,40.69
2017-01-20T06:10:32.972Z,40.69
2017-01-20T06:10:58.523Z,40.59
2017-01-20T06:11:24.095Z,40.49
2017-01-20T06:11:49.801Z,40.01
2017-01-20T06:12:15.366Z,40.01
2017-01-20T06:12:40.954Z,40.69
2017-01-20T06:13:06.725Z,40.88
2017-01-20T06:13:32.421Z,41.07
2017-01-20T06:13:58.031Z,40.78
2017-01-20T06:14:23.580Z,39.04
2017-01-20T06:14:49.228Z,39.24
2017-01-20T06:15:14.878Z,39.82
2017-01-20T06:15:40.578Z,40.39
2017-01-20T06:16:06.159Z,40.59
2017-01-20T06:16:31.714Z,40.69
2017-01-20T06:16:57.457Z,40.59
2017-01-20T06:17:23.083Z,40.59
2017-01-20T06:17:48.756Z,40.59
2017-01-20T06:18:14.271Z,40.49
2017-01-20T06:18:39.944Z,40.39
2017-01-20T06:19:05.500Z,40.39
2017-01-20T06:19:32.087Z,40.59
2017-01-20T06:19:57.619Z,40.39
2017-01-20T06:20:23.271Z,40.11
2017-01-20T06:20:49.680Z,40.59
2017-01-20T06:21:15.324Z,40.49
2017-01-20T06:21:40.968Z,40.69
2017-01-20T06:22:06.598Z,40.88
2017-01-20T06:22:33.890Z,41.27
2017-01-20T06:22:59.472Z,41.75
2017-01-20T06:23:25.119Z,41.65
2017-01-20T06:23:50.682Z,40.11
2017-01-20T06:24:16.339Z,36.73
2017-01-20T06:24:42.004Z,34.52
2017-01-20T06:25:07.602Z,33.82
2017-01-20T06:25:33.178Z,33.84
2017-01-20T06:25:58.742Z,34.21
2017-01-20T06:26:24.287Z,34.78
2017-01-20T06:26:49.820Z,35.08
2017-01-20T06:27:15.425Z,35.08
2017-01-20T06:27:41.030Z,35.36
2017-01-20T06:28:06.706Z,35.85
2017-01-20T06:28:32.246Z,37.29
2017-01-20T06:28:58.019Z,37.96
2017-01-20T06:29:23.596Z,39.03
2017-01-20T06:29:50.041Z,39.99
2017-01-20T06:30:15.582Z,40.09
2017-01-20T06:30:41.177Z,40.09
2017-01-20T06:31:06.756Z,40.37
2017-01-20T06:31:32.302Z,40.37
2017-01-20T06:31:57.870Z,40.47
2017-01-20T06:32:23.527Z,41.24
2017-01-20T06:32:49.108Z,41.36
2017-01-20T06:33:14.682Z,41.24
2017-01-20T06:33:40.399Z,41.24
2017-01-20T06:34:06.061Z,41.46
2017-01-20T06:34:31.668Z,41.75
2017-01-20T06:34:57.345Z,41.53
2017-01-20T06:35:22.929Z,41.63
2017-01-20T06:35:48.559Z,41.46
2017-01-20T06:36:14.237Z,41.55
2017-01-20T06:36:39.810Z,41.55
2017-01-20T06:37:06.065Z,41.34
2017-01-20T06:37:31.662Z,41.53
2017-01-20T06:37:57.264Z,41.75
2017-01-20T06:38:22.819Z,41.46
2017-01-20T06:38:48.562Z,41.55
2017-01-20T06:39:14.164Z,41.46
2017-01-20T06:39:39.743Z,41.46
2017-01-20T06:40:05.321Z,41.36
2017-01-20T06:40:30.913Z,41.65
2017-01-20T06:40:56.612Z,41.46
2017-01-20T06:41:22.174Z,41.46
2017-01-20T06:41:47.737Z,41.75
2017-01-20T06:42:13.603Z,41.55
2017-01-20T06:42:39.193Z,41.46
2017-01-20T06:43:04.758Z,41.55
2017-01-20T06:43:30.431Z,41.55
2017-01-20T06:43:55.988Z,41.55
2017-01-20T06:44:59.491Z,41.55
2017-01-20T06:45:25.046Z,41.46
2017-01-20T06:45:50.804Z,41.65
2017-01-20T06:47:04.665Z,41.75
2017-01-20T06:47:30.350Z,41.75
2017-01-20T06:47:55.932Z,41.55
2017-01-20T06:48:21.542Z,41.46
2017-01-20T06:48:47.135Z,41.65
2017-01-20T06:49:12.710Z,41.55
2017-01-20T06:49:38.300Z,41.55
2017-01-20T06:50:03.855Z,41.46
2017-01-20T06:50:29.493Z,41.55
2017-01-20T06:50:55.052Z,41.27
2017-01-20T06:51:20.611Z,41.36
2017-01-20T06:51:46.166Z,41.36
2017-01-20T06:52:49.616Z,41.27
2017-01-20T06:53:15.367Z,41.17
2017-01-20T06:53:40.916Z,41.27
2017-01-20T06:54:06.492Z,41.27
2017-01-20T06:54:32.050Z,41.27
2017-01-20T06:54:57.752Z,41.36
2017-01-20T06:55:23.396Z,41.36
2017-01-20T06:55:48.981Z,41.36
2017-01-20T06:56:15.492Z,41.27
2017-01-20T06:56:41.055Z,41.46
2017-01-20T06:57:06.716Z,41.46
2017-01-20T06:57:32.268Z,41.46
2017-01-20T06:57:57.870Z,41.27
2017-01-20T06:58:23.564Z,41.46
2017-01-20T06:58:49.149Z,41.46
2017-01-20T06:59:14.811Z,41.55
2017-01-20T06:59:40.707Z,41.27
2017-01-20T07:00:06.299Z,41.27
2017-01-20T07:00:31.979Z,41.36
2017-01-20T07:01:30.107Z,41.46
2017-01-20T07:01:55.651Z,41.46
2017-01-20T07:02:21.205Z,41.46
2017-01-20T07:02:46.755Z,41.46
2017-01-20T07:03:12.521Z,41.46
2017-01-20T07:03:38.080Z,41.46
2017-01-20T07:04:03.627Z,41.55
2017-01-20T07:04:29.188Z,41.55
2017-01-20T07:04:54.758Z,41.36
2017-01-20T07:05:20.312Z,41.65
2017-01-20T07:05:45.869Z,41.75
2017-01-20T07:06:11.423Z,41.55
2017-01-20T07:06:37.001Z,41.46
2017-01-20T07:07:02.553Z,41.65
2017-01-20T07:07:28.110Z,41.46
2017-01-20T07:07:53.656Z,41.46
2017-01-20T07:08:19.211Z,41.46
2017-01-20T07:08:44.772Z,41.46
2017-01-20T07:09:10.433Z,41.46
2017-01-20T07:09:36.006Z,41.36
2017-01-20T07:10:01.576Z,41.36
2017-01-20T07:10:27.560Z,41.27
2017-01-20T07:10:53.134Z,41.27
2017-01-20T07:11:18.704Z,41.17
2017-01-20T07:11:44.364Z,41.36
2017-01-20T07:12:09.875Z,41.17
2017-01-20T07:12:35.469Z,41.17
2017-01-20T07:13:01.041Z,41.07
2017-01-20T07:13:26.584Z,41.36
2017-01-20T07:13:52.233Z,41.36
2017-01-20T07:14:17.861Z,41.17
2017-01-20T07:14:43.411Z,41.07
2017-01-20T07:15:08.963Z,41.27
2017-01-20T07:15:34.683Z,41.27
2017-01-20T07:16:00.241Z,41.27
2017-01-20T07:16:25.815Z,41.36
2017-01-20T07:16:51.443Z,41.46
2017-01-20T07:17:17.051Z,41.27
2017-01-20T07:17:42.605Z,41.36
2017-01-20T07:18:08.269Z,41.27
2017-01-20T07:18:33.838Z,41.36
2017-01-20T07:18:59.402Z,41.36
2017-01-20T07:19:24.982Z,41.36
2017-01-20T07:19:50.547Z,41.17
2017-01-20T07:20:16.109Z,41.07
2017-01-20T07:20:41.668Z,41.36
2017-01-20T07:21:07.263Z,41.27
2017-01-20T07:21:32.823Z,41.27
2017-01-20T07:21:58.489Z,41.46
2017-01-20T07:22:24.000Z,41.07
2017-01-20T07:22:49.558Z,41.07
2017-01-20T07:23:15.220Z,41.27
2017-01-20T07:23:40.840Z,41.27
2017-01-20T07:24:06.416Z,41.27
2017-01-20T07:24:32.066Z,41.27
2017-01-20T07:24:57.615Z,41.36
2017-01-20T07:25:23.182Z,41.17
2017-01-20T07:25:48.734Z,41.27
2017-01-20T07:26:14.372Z,41.36
2017-01-20T07:26:39.933Z,41.27
2017-01-20T07:27:05.511Z,41.27
2017-01-20T07:27:31.882Z,41.27
2017-01-20T07:28:35.240Z,41.27
2017-01-20T07:29:00.826Z,41.07
2017-01-20T07:29:26.527Z,41.07
2017-01-20T07:29:52.093Z,41.17
2017-01-20T07:30:17.650Z,41.17
2017-01-20T07:30:43.321Z,41.36
2017-01-20T07:31:08.884Z,41.36
2017-01-20T07:31:34.451Z,41.27
2017-01-20T07:32:00.033Z,41.07
2017-01-20T07:32:25.623Z,41.27
2017-01-20T07:32:51.178Z,41.36
2017-01-20T07:33:16.762Z,41.27
2017-01-20T07:33:42.340Z,41.27
2017-01-20T07:34:07.900Z,41.07
2017-01-20T07:34:33.503Z,41.27
2017-01-20T07:34:59.058Z,41.17
2017-01-20T07:35:24.634Z,41.27
2017-01-20T07:35:50.225Z,41.36
2017-01-20T07:36:15.821Z,41.27
2017-01-20T07:36:41.383Z,41.27
2017-01-20T07:37:07.156Z,41.36
2017-01-20T07:37:32.783Z,41.65
2017-01-20T07:37:58.351Z,41.36
2017-01-20T07:38:24.005Z,41.65
2017-01-20T07:38:49.598Z,41.65
2017-01-20T07:39:15.159Z,41.46
2017-01-20T07:39:40.740Z,41.55
2017-01-20T07:40:06.409Z,41.46
2017-01-20T07:40:32.190Z,40.49
2017-01-20T07:40:57.755Z,37.79
2017-01-20T07:41:23.332Z,38.08
2017-01-20T07:41:49.052Z,38.85
2017-01-20T07:42:14.634Z,40.2
2017-01-20T07:42:40.193Z,41.05
2017-01-20T07:43:05.859Z,41.55
2017-01-20T07:43:31.416Z,41.75
2017-01-20T07:43:57.002Z,41.92
2017-01-20T07:44:22.585Z,41.55
2017-01-20T07:44:48.145Z,41.65
2017-01-20T07:45:13.694Z,41.65
2017-01-20T07:45:39.255Z,41.65
2017-01-20T07:46:04.861Z,41.94
2017-01-20T07:46:30.569Z,42.32
2017-01-20T07:46:56.120Z,41.94
2017-01-20T07:47:21.674Z,42.13
2017-01-20T07:47:47.292Z,42.13
2017-01-20T07:48:12.857Z,42.13
2017-01-20T07:48:38.421Z,42.32
2017-01-20T07:49:04.000Z,42.13
2017-01-20T07:49:29.575Z,41.84
2017-01-20T07:49:55.185Z,41.75
2017-01-20T07:50:20.747Z,42.03
2017-01-20T07:50:46.303Z,41.84
2017-01-20T07:51:11.855Z,41.75
2017-01-20T07:51:37.438Z,41.75
2017-01-20T07:52:03.040Z,41.84
2017-01-20T07:52:28.595Z,41.84
2017-01-20T07:52:54.158Z,41.75
2017-01-20T07:53:19.716Z,41.84
2017-01-20T07:53:45.393Z,41.75
2017-01-20T07:54:10.945Z,41.75
2017-01-20T07:54:36.512Z,41.75
2017-01-20T07:55:02.072Z,41.84
2017-01-20T07:55:27.706Z,41.94
2017-01-20T07:55:53.280Z,41.75
2017-01-20T07:56:18.852Z,41.75
2017-01-20T07:56:44.549Z,41.94
2017-01-20T07:57:10.107Z,41.65
2017-01-20T07:57:35.695Z,41.46
2017-01-20T07:58:01.368Z,41.46
2017-01-20T07:58:26.916Z,41.65
2017-01-20T07:58:52.478Z,41.36
2017-01-20T07:59:18.265Z,41.46
2017-01-20T07:59:43.818Z,41.55
2017-01-20T08:00:09.364Z,41.75
2017-01-20T08:00:34.923Z,41.55
2017-01-20T08:01:00.591Z,41.36
2017-01-20T08:01:26.172Z,41.36
2017-01-20T08:01:51.729Z,41.75
2017-01-20T08:02:17.399Z,41.75
2017-01-20T08:02:42.989Z,41.55
2017-01-20T08:03:08.597Z,41.55
2017-01-20T08:03:34.222Z,41.75
2017-01-20T08:03:59.799Z,41.55
2017-01-20T08:04:25.398Z,41.75
2017-01-20T08:04:50.984Z,41.75
2017-01-20T08:05:16.645Z,41.84
2017-01-20T08:05:42.227Z,41.65
2017-01-20T08:06:07.854Z,41.94
2017-01-20T08:06:33.464Z,41.65
2017-01-20T08:06:59.002Z,41.75
2017-01-20T08:07:24.561Z,41.75
2017-01-20T08:07:50.116Z,41.55
2017-01-20T08:08:15.667Z,41.75
2017-01-20T08:08:41.312Z,41.75
2017-01-20T08:09:06.875Z,41.55
2017-01-20T08:09:32.457Z,41.84
2017-01-20T08:09:58.024Z,41.84
2017-01-20T08:10:23.591Z,41.46
2017-01-20T08:10:49.154Z,41.36
2017-01-20T08:11:14.765Z,41.55
2017-01-20T08:11:40.391Z,41.46
2017-01-20T08:12:05.955Z,41.46
2017-01-20T08:12:31.519Z,41.65
2017-01-20T08:12:57.119Z,41.36
2017-01-20T08:13:22.808Z,41.46
2017-01-20T08:13:48.363Z,41.46
2017-01-20T08:14:13.923Z,41.36
2017-01-20T08:14:39.471Z,41.46
2017-01-20T08:15:05.069Z,41.65
2017-01-20T08:15:30.618Z,41.36
2017-01-20T08:15:56.187Z,41.46
2017-01-20T08:16:21.901Z,41.65
2017-01-20T08:16:47.505Z,41.65
2017-01-20T08:17:13.106Z,41.75
2017-01-20T08:17:38.677Z,41.46
2017-01-20T08:18:04.254Z,41.46
2017-01-20T08:18:29.836Z,41.55
2017-01-20T08:18:55.394Z,41.36
2017-01-20T08:19:20.989Z,41.55
2017-01-20T08:19:46.550Z,41.75
2017-01-20T08:20:12.117Z,41.55
2017-01-20T08:20:37.807Z,41.36
2017-01-20T08:21:03.490Z,41.46
2017-01-20T08:21:29.069Z,41.55
2017-01-20T08:21:54.651Z,41.55
2017-01-20T08:22:20.217Z,41.46
2017-01-20T08:22:45.784Z,41.84
2017-01-20T08:23:11.370Z,41.55
2017-01-20T08:23:36.927Z,41.46
2017-01-20T08:24:02.653Z,41.65
2017-01-20T08:24:28.217Z,41.46
2017-01-20T08:24:53.778Z,41.65
2017-01-20T08:25:19.411Z,41.46
2017-01-20T08:25:44.998Z,41.46
2017-01-20T08:26:10.566Z,41.55
2017-01-20T08:26:36.236Z,41.46
2017-01-20T08:27:01.800Z,41.27
2017-01-20T08:27:27.363Z,41.36
2017-01-20T08:27:53.024Z,41.27
2017-01-20T08:28:18.656Z,41.36
2017-01-20T08:28:44.217Z,41.46
2017-01-20T08:29:09.811Z,41.36
2017-01-20T08:29:35.390Z,41.27
2017-01-20T08:30:00.961Z,41.17
2017-01-20T08:30:26.517Z,41.36
2017-01-20T08:30:52.085Z,41.27
2017-01-20T08:31:17.675Z,41.27
2017-01-20T08:31:43.426Z,41.27
2017-01-20T08:32:08.988Z,41.36
2017-01-20T08:32:34.650Z,41.36
2017-01-20T08:33:00.245Z,41.36
2017-01-20T08:33:25.824Z,41.27
2017-01-20T08:33:51.379Z,41.36
2017-01-20T08:34:17.056Z,41.27
2017-01-20T08:34:42.622Z,41.27
2017-01-20T08:35:08.279Z,41.27
2017-01-20T08:35:33.863Z,41.36
2017-01-20T08:35:59.418Z,41.36
2017-01-20T08:36:24.993Z,41.36
2017-01-20T08:36:50.571Z,41.27
2017-01-20T08:37:16.126Z,41.46
2017-01-20T08:37:41.727Z,41.36
2017-01-20T08:38:07.313Z,41.27
2017-01-20T08:38:32.988Z,41.36
2017-01-20T08:38:58.547Z,41.36
2017-01-20T08:39:24.103Z,41.27
2017-01-20T08:39:49.695Z,41.36
2017-01-20T08:40:15.261Z,41.36
2017-01-20T08:40:40.850Z,41.27
2017-01-20T08:41:06.681Z,41.36
2017-01-20T08:41:32.256Z,41.27
2017-01-20T08:41:57.828Z,41.36
2017-01-20T08:42:23.476Z,41.36
2017-01-20T08:42:49.062Z,41.36
2017-01-20T08:43:14.623Z,41.36
2017-01-20T08:43:40.282Z,41.36
2017-01-20T08:44:05.856Z,41.46
2017-01-20T08:44:31.440Z,41.36
2017-01-20T08:44:57.008Z,41.46
2017-01-20T08:45:22.706Z,41.36
2017-01-20T08:45:48.272Z,41.36
2017-01-20T08:46:13.820Z,41.46
2017-01-20T08:46:39.500Z,41.17
2017-01-20T08:47:05.062Z,41.17
2017-01-20T08:47:30.640Z,41.27
2017-01-20T08:47:56.352Z,41.36
2017-01-20T08:48:21.905Z,41.36
2017-01-20T08:48:47.470Z,41.17
2017-01-20T08:49:13.014Z,41.07
2017-01-20T08:49:38.826Z,41.46
2017-01-20T08:50:04.478Z,41.27
2017-01-20T08:50:30.033Z,41.27
2017-01-20T08:50:55.590Z,41.27
2017-01-20T08:51:21.171Z,41.07
2017-01-20T08:51:46.724Z,41.17
2017-01-20T08:52:12.366Z,41.27
2017-01-20T08:52:38.013Z,41.27
2017-01-20T08:53:03.800Z,41.36
2017-01-20T08:53:29.481Z,41.36
2017-01-20T08:53:55.112Z,41.36
2017-01-20T08:54:20.672Z,41.36
2017-01-20T08:54:46.237Z,41.36
2017-01-20T08:55:11.992Z,41.46
2017-01-20T08:55:37.560Z,41.46
2017-01-20T08:56:03.108Z,41.17
2017-01-20T08:56:28.684Z,41.36
2017-01-20T08:56:54.225Z,41.27
2017-01-20T08:57:19.831Z,41.17
2017-01-20T08:57:45.382Z,41.36
2017-01-20T08:58:10.941Z,41.36
2017-01-20T08:58:36.526Z,41.27
2017-01-20T08:59:02.107Z,41.36
2017-01-20T08:59:55.093Z,41.36
2017-01-20T09:00:20.651Z,41.27
2017-01-20T09:00:46.310Z,41.46
2017-01-20T09:01:11.939Z,41.36
2017-01-20T09:01:37.530Z,41.36
2017-01-20T09:02:03.123Z,41.36
2017-01-20T09:02:28.741Z,41.27
2017-01-20T09:02:54.379Z,41.27
2017-01-20T09:03:19.988Z,41.36
2017-01-20T09:03:45.551Z,41.27
2017-01-20T09:04:11.091Z,41.27
2017-01-20T09:04:36.677Z,41.36
2017-01-20T09:05:02.333Z,41.36
2017-01-20T09:05:27.928Z,41.36
2017-01-20T09:05:53.533Z,41.36
2017-01-20T09:06:19.157Z,41.36
2017-01-20T09:06:44.760Z,41.27
2017-01-20T09:07:10.348Z,41.36
2017-01-20T09:07:35.953Z,41.36
2017-01-20T09:08:01.573Z,41.36
2017-01-20T09:08:27.152Z,41.36
2017-01-20T09:08:52.733Z,41.36
2017-01-20T09:09:18.316Z,41.46
2017-01-20T09:09:43.925Z,41.36
2017-01-20T09:10:09.504Z,41.36
2017-01-20T09:10:35.106Z,41.36
2017-01-20T09:11:00.658Z,41.36
2017-01-20T09:11:26.238Z,41.27
2017-01-20T09:11:51.810Z,41.27
2017-01-20T09:12:17.520Z,41.36
2017-01-20T09:12:43.098Z,41.36
2017-01-20T09:13:08.754Z,41.36
2017-01-20T09:13:34.364Z,41.46
2017-01-20T09:13:59.914Z,41.65
2017-01-20T09:14:25.481Z,41.46
2017-01-20T09:14:51.061Z,41.36
2017-01-20T09:15:16.677Z,41.65
2017-01-20T09:15:42.266Z,41.36
2017-01-20T09:16:07.775Z,41.46
2017-01-20T09:16:33.434Z,41.55
2017-01-20T09:16:58.994Z,41.65
2017-01-20T09:17:24.550Z,41.36
2017-01-20T09:17:50.132Z,41.46
2017-01-20T09:18:15.713Z,41.46
2017-01-20T09:18:41.282Z,41.46
2017-01-20T09:19:06.906Z,41.55
2017-01-20T09:19:32.459Z,41.55
2017-01-20T09:19:58.089Z,41.55
2017-01-20T09:20:23.658Z,41.46
2017-01-20T09:20:49.212Z,41.75
2017-01-20T09:21:14.773Z,41.65
2017-01-20T09:21:40.378Z,41.55
2017-01-20T09:22:05.941Z,41.55
2017-01-20T09:22:31.478Z,41.46
2017-01-20T09:22:57.036Z,41.65
2017-01-20T09:23:22.598Z,41.55
2017-01-20T09:23:48.166Z,41.46
2017-01-20T09:24:13.727Z,41.75
2017-01-20T09:24:39.285Z,41.65
2017-01-20T09:25:04.848Z,41.65
2017-01-20T09:25:30.386Z,41.65
2017-01-20T09:25:56.037Z,41.75
2017-01-20T09:26:21.728Z,41.55
2017-01-20T09:26:47.269Z,41.75
2017-01-20T09:27:12.831Z,41.75
2017-01-20T09:27:38.404Z,41.94
2017-01-20T09:28:03.969Z,41.94
2017-01-20T09:28:29.535Z,41.94
2017-01-20T09:28:55.095Z,42.52
2017-01-20T09:29:20.766Z,42.42
2017-01-20T09:29:46.328Z,42.52
2017-01-20T09:30:12.029Z,42.23
2017-01-20T09:30:37.675Z,42.52
2017-01-20T09:31:03.242Z,42.42
2017-01-20T09:31:28.807Z,42.13
2017-01-20T09:31:54.380Z,42.71
2017-01-20T09:32:19.934Z,42.61
2017-01-20T09:32:45.492Z,42.32
2017-01-20T09:33:11.122Z,42.13
2017-01-20T09:33:36.960Z,42.61
2017-01-20T09:34:02.440Z,42.61
2017-01-20T09:34:27.873Z,42.32
2017-01-20T09:34:53.438Z,42.52
2017-01-20T09:35:18.997Z,42.42
2017-01-20T09:35:44.697Z,42.71
2017-01-20T09:36:10.285Z,42.8
2017-01-20T09:36:35.863Z,43.1
2017-01-20T09:37:01.472Z,42.9
2017-01-20T09:37:27.062Z,42.9
2017-01-20T09:37:52.654Z,42.71
2017-01-20T09:38:18.236Z,42.8